createdAt,value
2023-11-05T00:01:30.783Z,1.05
2023-11-05T00:03:57.950Z,1.63
2023-11-05T00:06:26.409Z,1.55
2023-11-05T00:08:53.421Z,1.45
2023-11-05T00:11:20.427Z,1.17
2023-11-05T00:13:47.636Z,1.17
2023-11-05T00:16:14.931Z,1.30
2023-11-05T00:18:42.653Z,1.67
2023-11-05T00:21:09.861Z,1.23
2023-11-05T00:23:38.252Z,1.25
2023-11-05T00:26:05.822Z,1.13
2023-11-05T00:28:32.867Z,1.15
2023-11-05T00:31:00.119Z,1.15
2023-11-05T00:33:27.312Z,1.08
2023-11-05T00:35:54.347Z,1.15
2023-11-05T00:38:21.546Z,1.33
2023-11-05T00:40:50.002Z,1.30
2023-11-05T00:43:17.111Z,0.82
2023-11-05T00:45:44.166Z,1.00
2023-11-05T00:48:11.227Z,1.42
2023-11-05T00:50:38.311Z,1.42
2023-11-05T00:53:05.289Z,1.23
2023-11-05T00:55:32.371Z,1.25
2023-11-05T00:58:00.747Z,1.35
2023-11-05T01:00:27.970Z,1.42
2023-11-05T01:02:55.430Z,1.20
2023-11-05T01:05:23.196Z,1.48
2023-11-05T01:07:50.490Z,1.00
2023-11-05T01:10:17.881Z,1.30
2023-11-05T01:12:45.127Z,1.40
2023-11-05T01:15:13.931Z,1.35
2023-11-05T01:17:41.054Z,1.20
2023-11-05T01:20:09.715Z,1.05
2023-11-05T01:22:36.793Z,1.23
2023-11-05T01:25:04.184Z,1.92
2023-11-05T01:27:31.357Z,1.60
2023-11-05T01:29:58.413Z,1.35
2023-11-05T01:32:26.817Z,1.67
2023-11-05T01:34:53.812Z,0.98
2023-11-05T01:37:20.864Z,0.80
2023-11-05T01:39:48.166Z,1.08
2023-11-05T01:42:15.266Z,1.00
2023-11-05T01:44:42.394Z,0.95
2023-11-05T01:47:10.835Z,1.08
2023-11-05T01:49:40.341Z,1.15
2023-11-05T01:52:08.209Z,1.52
2023-11-05T01:54:35.403Z,0.93
2023-11-05T01:57:04.133Z,0.73
2023-11-05T01:59:31.560Z,1.20
2023-11-05T02:02:02.089Z,1.15
2023-11-05T02:04:29.631Z,0.73
2023-11-05T02:06:58.048Z,1.00
2023-11-05T02:09:25.417Z,1.08
2023-11-05T02:11:52.499Z,0.93
2023-11-05T02:14:19.810Z,0.80
2023-11-05T02:16:47.038Z,0.70
2023-11-05T02:19:14.295Z,0.70
2023-11-05T02:21:47.209Z,1.10
2023-11-05T02:24:15.626Z,0.80
2023-11-05T02:26:42.756Z,1.00
2023-11-05T02:29:09.841Z,0.70
2023-11-05T02:31:36.980Z,0.90
2023-11-05T02:34:04.424Z,0.63
2023-11-05T02:36:32.198Z,1.35
2023-11-05T02:38:59.306Z,0.88
2023-11-05T02:41:27.683Z,0.75
2023-11-05T02:43:54.805Z,0.93
2023-11-05T02:46:21.898Z,0.80
2023-11-05T02:48:49.134Z,0.50
2023-11-05T02:51:16.217Z,0.82
2023-11-05T02:53:43.235Z,0.70
2023-11-05T02:56:10.605Z,0.32
2023-11-05T02:58:39.323Z,0.73
2023-11-05T03:01:06.562Z,0.38
2023-11-05T03:03:33.740Z,0.85
2023-11-05T03:06:00.753Z,0.77
2023-11-05T03:08:28.061Z,0.70
2023-11-05T03:10:56.607Z,0.77
2023-11-05T03:13:23.696Z,0.68
2023-11-05T03:15:51.993Z,0.73
2023-11-05T03:18:19.405Z,0.60
2023-11-05T03:20:46.517Z,0.75
2023-11-05T03:23:13.821Z,0.35
2023-11-05T03:25:42.513Z,0.50
2023-11-05T03:28:09.734Z,0.40
2023-11-05T03:30:36.818Z,0.57
2023-11-05T03:33:06.943Z,0.40
2023-11-05T03:35:34.095Z,0.50
2023-11-05T03:38:01.619Z,0.80
2023-11-05T03:40:28.748Z,0.55
2023-11-05T03:42:55.860Z,0.90
2023-11-05T03:45:22.887Z,0.70
2023-11-05T03:47:49.932Z,0.47
2023-11-05T03:50:18.944Z,0.50
2023-11-05T03:52:45.975Z,0.30
2023-11-05T03:55:13.138Z,0.43
2023-11-05T03:57:40.245Z,0.60
2023-11-05T04:00:09.059Z,0.75
2023-11-05T04:02:36.058Z,0.55
2023-11-05T04:05:03.491Z,0.65
2023-11-05T04:07:31.928Z,0.40
2023-11-05T04:09:59.043Z,0.60
2023-11-05T04:12:26.140Z,0.65
2023-11-05T04:14:53.352Z,0.30
2023-11-05T04:17:20.406Z,0.65
2023-11-05T04:19:47.476Z,0.57
2023-11-05T04:22:14.637Z,0.65
2023-11-05T04:24:43.453Z,0.50
2023-11-05T04:27:10.498Z,0.45
2023-11-05T04:29:37.490Z,0.40
2023-11-05T04:32:05.087Z,0.45
2023-11-05T04:34:33.491Z,0.50
2023-11-05T04:37:02.169Z,0.60
2023-11-05T04:39:29.853Z,0.80
2023-11-05T04:41:58.545Z,0.50
2023-11-05T04:44:25.817Z,0.50
2023-11-05T04:46:52.964Z,0.70
2023-11-05T04:49:20.385Z,0.73
2023-11-05T04:51:47.453Z,0.77
2023-11-05T04:54:15.120Z,0.70
2023-11-05T04:56:43.035Z,0.38
2023-11-05T04:59:11.379Z,0.70
2023-11-05T05:01:38.520Z,0.60
2023-11-05T05:04:06.318Z,0.50
2023-11-05T05:06:33.350Z,0.30
2023-11-05T05:09:00.439Z,0.38
2023-11-05T05:11:27.501Z,0.50
2023-11-05T05:13:54.604Z,0.40
2023-11-05T05:16:23.290Z,0.60
2023-11-05T05:18:50.404Z,0.40
2023-11-05T05:21:17.525Z,0.52
2023-11-05T05:23:44.610Z,0.43
2023-11-05T05:26:11.615Z,0.75
2023-11-05T05:28:38.878Z,0.30
2023-11-05T05:31:06.177Z,0.50
2023-11-05T05:33:35.002Z,0.30
2023-11-05T05:36:02.310Z,0.32
2023-11-05T05:38:29.500Z,0.30
2023-11-05T05:40:56.505Z,0.70
2023-11-05T05:43:23.824Z,0.40
2023-11-05T05:45:51.006Z,0.38
2023-11-05T05:48:18.007Z,0.65
2023-11-05T05:50:46.382Z,0.30
2023-11-05T05:53:13.505Z,0.40
2023-11-05T05:55:41.894Z,0.57
2023-11-05T05:58:09.241Z,0.20
2023-11-05T06:00:36.331Z,0.47
2023-11-05T06:03:03.398Z,0.50
2023-11-05T06:05:30.636Z,0.25
2023-11-05T06:07:59.115Z,0.38
2023-11-05T06:10:26.713Z,0.28
2023-11-05T06:12:53.910Z,0.30
2023-11-05T06:15:20.962Z,0.40
2023-11-05T06:17:48.181Z,0.40
2023-11-05T06:20:15.387Z,0.45
2023-11-05T06:22:42.489Z,0.25
2023-11-05T06:25:11.945Z,0.22
2023-11-05T06:27:40.053Z,0.30
2023-11-05T06:30:09.581Z,0.40
2023-11-05T06:32:36.714Z,0.30
2023-11-05T06:35:04.142Z,0.47
2023-11-05T06:37:32.292Z,0.55
2023-11-05T06:39:59.548Z,0.20
2023-11-05T06:42:28.562Z,0.40
2023-11-05T06:44:55.617Z,0.38
2023-11-05T06:47:23.010Z,0.47
2023-11-05T06:49:50.181Z,0.30
2023-11-05T06:52:17.396Z,0.40
2023-11-05T06:54:44.620Z,0.20
2023-11-05T06:57:11.668Z,0.20
2023-11-05T06:59:40.101Z,0.50
2023-11-05T07:02:11.492Z,0.30
2023-11-05T07:04:39.222Z,0.32
2023-11-05T07:07:06.830Z,0.40
2023-11-05T07:09:35.215Z,0.65
2023-11-05T07:12:05.784Z,0.43
2023-11-05T07:14:33.132Z,0.28
2023-11-05T07:17:01.548Z,0.50
2023-11-05T07:19:28.790Z,0.20
2023-11-05T07:21:55.987Z,0.40
2023-11-05T07:24:23.049Z,0.30
2023-11-05T07:26:50.186Z,0.40
2023-11-05T07:29:17.611Z,0.30
2023-11-05T07:31:44.801Z,0.30
2023-11-05T07:34:13.425Z,0.32
2023-11-05T07:36:41.146Z,0.40
2023-11-05T07:39:08.511Z,0.30
2023-11-05T07:41:35.615Z,0.43
2023-11-05T07:44:02.775Z,0.30
2023-11-05T07:46:30.336Z,0.50
2023-11-05T07:48:57.439Z,0.50
2023-11-05T07:51:25.895Z,0.40
2023-11-05T07:53:54.034Z,0.32
2023-11-05T07:56:21.314Z,0.30
2023-11-05T07:58:49.764Z,0.32
2023-11-05T08:01:16.983Z,0.30
2023-11-05T08:03:44.321Z,0.20
2023-11-05T08:06:11.581Z,0.22
2023-11-05T08:08:40.147Z,0.40
2023-11-05T08:11:07.298Z,0.30
2023-11-05T08:13:34.416Z,0.32
2023-11-05T08:16:03.650Z,0.22
2023-11-05T08:18:30.812Z,0.35
2023-11-05T08:20:57.966Z,0.20
2023-11-05T08:23:25.055Z,0.20
2023-11-05T08:25:53.639Z,0.28
2023-11-05T08:28:26.089Z,0.22
2023-11-05T08:30:54.613Z,0.28
2023-11-05T08:33:21.966Z,0.30
2023-11-05T08:35:49.340Z,0.30
2023-11-05T08:38:16.395Z,0.38
2023-11-05T08:40:43.412Z,0.45
2023-11-05T08:43:11.928Z,0.40
2023-11-05T08:45:45.827Z,0.20
2023-11-05T08:48:17.780Z,0.50
2023-11-05T08:50:44.979Z,0.35
2023-11-05T08:53:12.029Z,0.90
2023-11-05T08:55:39.426Z,0.50
2023-11-05T08:58:06.653Z,0.30
2023-11-05T09:00:36.512Z,0.47
2023-11-05T09:03:06.096Z,0.50
2023-11-05T09:05:33.311Z,1.17
2023-11-05T09:08:00.424Z,0.45
2023-11-05T09:10:28.166Z,0.35
2023-11-05T09:12:56.322Z,0.40
2023-11-05T09:15:26.444Z,0.47
2023-11-05T09:17:54.959Z,0.43
2023-11-05T09:20:21.997Z,0.35
2023-11-05T09:22:49.537Z,0.30
2023-11-05T09:25:16.680Z,0.60
2023-11-05T09:27:43.661Z,0.80
2023-11-05T09:30:15.917Z,0.50
2023-11-05T09:32:44.184Z,0.77
2023-11-05T09:35:14.388Z,0.77
2023-11-05T09:37:42.215Z,0.32
2023-11-05T09:40:10.117Z,0.60
2023-11-05T09:42:45.342Z,0.52
2023-11-05T09:47:42.478Z,0.90
2023-11-05T09:50:13.632Z,0.90
2023-11-05T09:52:42.887Z,1.05
2023-11-05T09:55:10.706Z,0.52
2023-11-05T09:57:38.176Z,0.75
2023-11-05T10:00:10.525Z,0.73
2023-11-05T10:02:53.845Z,0.70
2023-11-05T10:05:20.954Z,0.65
2023-11-05T10:07:50.076Z,0.68
2023-11-05T10:10:17.348Z,0.80
2023-11-05T10:12:44.431Z,0.70
2023-11-05T10:15:11.614Z,1.25
2023-11-05T10:17:38.642Z,0.50
2023-11-05T10:20:07.705Z,0.73
2023-11-05T10:22:34.822Z,0.98
2023-11-05T10:25:07.358Z,1.00
2023-11-05T10:27:36.789Z,0.80
2023-11-05T10:30:06.075Z,0.68
2023-11-05T10:32:38.475Z,0.88
2023-11-05T10:35:07.467Z,0.75
2023-11-05T10:37:34.507Z,1.30
2023-11-05T10:40:06.780Z,1.08
2023-11-05T10:42:35.429Z,1.00
2023-11-05T10:45:04.073Z,1.08
2023-11-05T10:47:31.902Z,0.80
2023-11-05T10:50:00.294Z,1.38
2023-11-05T10:52:32.585Z,0.47
2023-11-05T10:55:09.275Z,0.82
2023-11-05T10:57:43.980Z,0.93
2023-11-05T11:00:50.748Z,0.80
2023-11-05T11:03:20.078Z,0.85
2023-11-05T11:05:58.359Z,0.98
2023-11-05T11:08:27.939Z,0.80
2023-11-05T11:11:09.665Z,0.98
2023-11-05T11:13:39.429Z,1.20
2023-11-05T11:16:09.598Z,0.95
2023-11-05T11:18:40.641Z,0.75
2023-11-05T11:21:10.531Z,1.02
2023-11-05T11:23:39.683Z,1.55
2023-11-05T11:26:19.216Z,1.10
2023-11-05T11:28:47.129Z,0.90
2023-11-05T11:31:14.460Z,0.77
2023-11-05T11:33:41.877Z,0.68
2023-11-05T11:36:09.523Z,0.73
2023-11-05T11:38:38.026Z,0.70
2023-11-05T11:41:05.380Z,1.00
2023-11-05T11:43:33.801Z,0.90
2023-11-05T11:46:01.176Z,0.80
2023-11-05T11:48:28.506Z,0.82
2023-11-05T11:50:57.817Z,0.40
2023-11-05T11:53:28.872Z,0.98
2023-11-05T11:55:56.580Z,0.50
2023-11-05T11:58:25.743Z,0.68
2023-11-05T12:00:56.071Z,0.90
2023-11-05T12:03:25.161Z,0.85
2023-11-05T12:05:54.077Z,0.68
2023-11-05T12:08:37.607Z,0.52
2023-11-05T12:11:07.990Z,0.63
2023-11-05T12:13:35.927Z,0.65
2023-11-05T12:16:12.907Z,0.80
2023-11-05T12:18:41.434Z,0.95
2023-11-05T12:21:09.149Z,0.68
2023-11-05T12:23:36.801Z,0.57
2023-11-05T12:26:06.404Z,0.77
2023-11-05T12:28:34.158Z,0.65
2023-11-05T12:31:02.355Z,0.55
2023-11-05T12:33:33.514Z,0.57
2023-11-05T12:36:01.087Z,0.50
2023-11-05T12:38:28.366Z,0.98
2023-11-05T12:40:55.849Z,0.40
2023-11-05T12:43:24.979Z,0.60
2023-11-05T12:45:56.427Z,0.50
2023-11-05T12:48:31.010Z,0.57
2023-11-05T12:51:02.581Z,0.50
2023-11-05T12:53:31.744Z,0.40
2023-11-05T12:56:04.716Z,0.40
2023-11-05T12:58:33.949Z,0.50
2023-11-05T13:01:02.349Z,0.30
2023-11-05T13:03:33.170Z,0.43
2023-11-05T13:06:04.847Z,0.80
2023-11-05T13:08:33.531Z,0.40
2023-11-05T13:11:03.960Z,0.50
2023-11-05T13:13:31.063Z,0.77
2023-11-05T13:15:59.027Z,0.55
2023-11-05T13:18:26.284Z,0.70
2023-11-05T13:20:53.405Z,0.40
2023-11-05T13:23:23.082Z,0.47
2023-11-05T13:25:51.553Z,0.50
2023-11-05T13:28:21.909Z,0.90
2023-11-05T13:30:49.648Z,0.60
2023-11-05T13:33:17.717Z,0.60
2023-11-05T13:35:47.508Z,0.60
2023-11-05T13:38:14.656Z,0.60
2023-11-05T13:40:43.307Z,0.57
2023-11-05T13:43:10.775Z,0.63
2023-11-05T13:45:37.937Z,0.70
2023-11-05T13:48:05.746Z,0.88
2023-11-05T13:50:32.847Z,0.50
2023-11-05T13:52:59.951Z,0.63
2023-11-05T13:55:28.082Z,1.02
2023-11-05T13:57:56.603Z,0.60
2023-11-05T14:00:24.065Z,0.60
2023-11-05T14:02:51.627Z,0.60
2023-11-05T14:05:19.205Z,0.63
2023-11-05T14:07:48.116Z,0.50
2023-11-05T14:10:16.214Z,0.60
2023-11-05T14:12:43.413Z,0.40
2023-11-05T14:15:12.432Z,0.57
2023-11-05T14:17:41.240Z,0.80
2023-11-05T14:20:11.447Z,0.63
2023-11-05T14:22:39.073Z,0.98
2023-11-05T14:25:07.005Z,0.75
2023-11-05T14:27:34.174Z,1.00
2023-11-05T14:30:01.143Z,1.08
2023-11-05T14:32:29.701Z,0.65
2023-11-05T14:34:57.025Z,0.65
2023-11-05T14:37:25.589Z,0.70
2023-11-05T14:39:55.146Z,0.90
2023-11-05T14:42:22.562Z,1.02
2023-11-05T14:44:50.736Z,0.90
2023-11-05T14:47:17.972Z,0.80
2023-11-05T14:49:48.253Z,0.73
2023-11-05T14:52:15.525Z,0.80
2023-11-05T14:54:42.681Z,0.60
2023-11-05T14:57:09.775Z,0.60
2023-11-05T14:59:36.830Z,0.77
2023-11-05T15:02:04.636Z,0.93
2023-11-05T15:04:31.775Z,0.70
2023-11-05T15:07:00.159Z,0.55
2023-11-05T15:09:27.259Z,0.65
2023-11-05T15:11:54.475Z,1.13
2023-11-05T15:14:21.495Z,0.90
2023-11-05T15:16:48.612Z,0.70
2023-11-05T15:19:15.687Z,0.60
2023-11-05T15:21:45.972Z,0.55
2023-11-05T15:24:15.139Z,0.60
2023-11-05T15:26:42.299Z,0.45
2023-11-05T15:29:09.360Z,0.75
2023-11-05T15:31:36.493Z,0.60
2023-11-05T15:34:04.199Z,0.55
2023-11-05T15:36:31.452Z,0.38
2023-11-05T15:38:58.698Z,0.80
2023-11-05T15:41:27.373Z,0.50
2023-11-05T15:43:54.639Z,0.65
2023-11-05T15:46:24.709Z,0.52
2023-11-05T15:48:52.180Z,0.70
2023-11-05T15:51:22.493Z,0.57
2023-11-05T15:53:49.817Z,0.50
2023-11-05T15:56:17.065Z,0.60
2023-11-05T15:58:45.470Z,0.70
2023-11-05T16:01:13.517Z,0.50
2023-11-05T16:03:42.207Z,0.63
2023-11-05T16:06:09.742Z,0.90
2023-11-05T16:08:36.937Z,0.70
2023-11-05T16:11:05.144Z,0.57
2023-11-05T16:13:32.268Z,0.60
2023-11-05T16:16:00.711Z,0.90
2023-11-05T16:18:28.068Z,1.17
2023-11-05T16:20:55.233Z,0.60
2023-11-05T16:23:22.524Z,0.70
2023-11-05T16:25:49.914Z,0.88
2023-11-05T16:28:17.149Z,1.33
2023-11-05T16:30:46.381Z,1.42
2023-11-05T16:33:16.473Z,1.25
2023-11-05T16:35:43.580Z,0.90
2023-11-05T16:38:10.580Z,0.80
2023-11-05T16:40:38.202Z,1.73
2023-11-05T16:43:05.400Z,1.70
2023-11-05T16:45:32.564Z,1.33
2023-11-05T16:47:59.989Z,1.50
2023-11-05T16:50:28.505Z,1.65
2023-11-05T16:52:55.639Z,1.63
2023-11-05T16:55:22.880Z,1.30
2023-11-05T16:57:51.474Z,2.83
2023-11-05T17:00:19.649Z,1.90
2023-11-05T17:02:47.777Z,1.45
2023-11-05T17:05:15.180Z,1.90
2023-11-05T17:07:44.560Z,1.73
2023-11-05T17:10:12.086Z,1.60
2023-11-05T17:12:39.905Z,1.50
2023-11-05T17:15:08.565Z,2.03
2023-11-05T17:17:36.985Z,1.63
2023-11-05T17:20:05.597Z,1.35
2023-11-05T17:22:33.185Z,2.30
2023-11-05T17:25:01.696Z,1.65
2023-11-05T17:27:28.745Z,1.50
2023-11-05T17:29:55.754Z,1.40
2023-11-05T17:32:23.094Z,2.00
2023-11-05T17:34:50.209Z,1.50
2023-11-05T17:37:17.872Z,1.30
2023-11-05T17:39:45.237Z,0.98
2023-11-05T17:42:13.769Z,0.90
2023-11-05T17:44:40.729Z,1.48
2023-11-05T17:47:07.939Z,1.10
2023-11-05T17:49:35.434Z,0.88
2023-11-05T17:52:04.363Z,1.23
2023-11-05T17:54:32.680Z,1.00
2023-11-05T17:57:00.149Z,0.88
2023-11-05T17:59:28.569Z,1.10
2023-11-05T18:01:55.862Z,1.27
2023-11-05T18:04:25.457Z,0.98
2023-11-05T18:06:53.260Z,0.65
2023-11-05T18:09:20.460Z,1.30
2023-11-05T18:11:47.633Z,0.90
2023-11-05T18:14:15.711Z,1.00
2023-11-05T18:16:44.268Z,0.80
2023-11-05T18:19:11.364Z,0.85
2023-11-05T18:21:38.673Z,1.55
2023-11-05T18:24:06.827Z,1.27
2023-11-05T18:26:35.966Z,1.00
2023-11-05T18:29:04.858Z,1.13
2023-11-05T18:31:32.168Z,1.25
2023-11-05T18:34:04.962Z,0.93
2023-11-05T18:36:32.056Z,1.33
2023-11-05T18:38:59.190Z,1.38
2023-11-05T18:41:26.199Z,1.17
2023-11-05T18:43:53.964Z,1.92
2023-11-05T18:46:21.012Z,1.40
2023-11-05T18:48:48.794Z,1.30
2023-11-05T18:51:19.463Z,0.75
2023-11-05T18:53:46.538Z,1.10
2023-11-05T18:56:13.887Z,1.20
2023-11-05T18:58:40.985Z,1.67
2023-11-05T19:01:08.219Z,1.33
2023-11-05T19:03:36.157Z,1.60
2023-11-05T19:06:03.758Z,1.25
2023-11-05T19:08:32.226Z,1.40
2023-11-05T19:11:02.409Z,1.40
2023-11-05T19:13:29.600Z,1.08
2023-11-05T19:15:56.621Z,1.48
2023-11-05T19:18:23.794Z,1.27
2023-11-05T19:20:52.444Z,1.63
2023-11-05T19:23:19.662Z,1.40
2023-11-05T19:25:48.266Z,1.27
2023-11-05T19:28:16.673Z,1.13
2023-11-05T19:30:44.110Z,1.50
2023-11-05T19:33:11.498Z,1.92
2023-11-05T19:35:39.180Z,1.20
2023-11-05T19:38:06.335Z,1.25
2023-11-05T19:40:34.128Z,1.35
2023-11-05T19:43:02.529Z,1.40
2023-11-05T19:45:29.637Z,1.13
2023-11-05T19:47:56.852Z,1.10
2023-11-05T19:50:23.967Z,1.20
2023-11-05T19:52:51.081Z,1.63
2023-11-05T19:55:18.369Z,0.93
2023-11-05T19:57:46.072Z,1.42
2023-11-05T20:00:17.143Z,1.20
2023-11-05T20:02:44.389Z,1.08
2023-11-05T20:05:12.014Z,1.05
2023-11-05T20:07:39.633Z,1.20
2023-11-05T20:10:07.625Z,1.30
2023-11-05T20:12:36.370Z,1.48
2023-11-05T20:15:03.847Z,1.25
2023-11-05T20:17:32.392Z,1.15
2023-11-05T20:19:59.466Z,1.13
2023-11-05T20:22:27.196Z,1.10
2023-11-05T20:24:55.477Z,1.10
2023-11-05T20:27:23.877Z,1.25
2023-11-05T20:29:51.486Z,0.90
2023-11-05T20:32:18.659Z,1.55
2023-11-05T20:34:47.234Z,1.10
2023-11-05T20:37:14.448Z,1.10
2023-11-05T20:39:41.502Z,1.15
2023-11-05T20:42:08.685Z,0.90
2023-11-05T20:44:35.848Z,0.98
2023-11-05T20:47:04.387Z,0.93
2023-11-05T20:49:31.531Z,1.00
2023-11-05T20:52:00.082Z,0.93
2023-11-05T20:54:27.110Z,0.80
2023-11-05T20:56:54.272Z,1.00
2023-11-05T20:59:21.426Z,0.80
2023-11-05T21:01:48.451Z,1.00
2023-11-05T21:04:15.546Z,0.63
2023-11-05T21:06:42.607Z,0.68
2023-11-05T21:09:12.481Z,0.80
2023-11-05T21:11:40.446Z,0.80
2023-11-05T21:14:08.243Z,0.70
2023-11-05T21:16:35.337Z,0.75
2023-11-05T21:19:02.432Z,0.60
2023-11-05T21:21:29.874Z,0.90
2023-11-05T21:23:56.886Z,0.68
2023-11-05T21:26:25.357Z,0.80
2023-11-05T21:28:52.381Z,0.82
2023-11-05T21:31:19.593Z,0.60
2023-11-05T21:33:46.702Z,0.70
2023-11-05T21:36:15.568Z,0.52
2023-11-05T21:38:42.764Z,0.70
2023-11-05T21:41:10.151Z,0.52
2023-11-05T21:43:38.676Z,0.40
2023-11-05T21:46:10.101Z,0.70
2023-11-05T21:48:42.411Z,0.63
2023-11-05T21:51:09.668Z,0.75
2023-11-05T21:53:37.657Z,0.85
2023-11-05T21:56:05.317Z,0.77
2023-11-05T21:58:33.848Z,0.32
2023-11-05T22:01:05.028Z,0.60
2023-11-05T22:03:33.589Z,0.60
2023-11-05T22:06:00.807Z,0.50
2023-11-05T22:08:28.171Z,0.50
2023-11-05T22:10:55.276Z,0.50
2023-11-05T22:13:22.300Z,0.73
2023-11-05T22:15:50.037Z,0.57
2023-11-05T22:18:18.819Z,0.57
2023-11-05T22:20:46.263Z,0.55
2023-11-05T22:23:13.453Z,0.47
2023-11-05T22:25:40.613Z,1.08
2023-11-05T22:28:08.917Z,0.70
2023-11-05T22:30:36.167Z,0.77
2023-11-05T22:33:04.070Z,0.47
2023-11-05T22:35:32.749Z,0.60
2023-11-05T22:37:59.829Z,0.80
2023-11-05T22:40:26.855Z,0.70
2023-11-05T22:42:53.934Z,0.63
2023-11-05T22:45:22.316Z,0.75
2023-11-05T22:47:49.360Z,0.70
2023-11-05T22:50:16.626Z,0.80
2023-11-05T22:52:46.863Z,0.90
2023-11-05T22:55:14.026Z,0.45
2023-11-05T22:57:41.035Z,0.73
2023-11-05T23:00:17.639Z,0.85
2023-11-05T23:02:44.753Z,0.60
2023-11-05T23:05:11.800Z,1.00
2023-11-05T23:07:40.298Z,0.70
2023-11-05T23:10:10.094Z,0.80
2023-11-05T23:12:37.123Z,1.13
2023-11-05T23:15:04.792Z,0.90
2023-11-05T23:17:32.109Z,0.50
2023-11-05T23:19:59.252Z,0.68
2023-11-05T23:22:26.280Z,0.70
2023-11-05T23:24:55.196Z,0.98
2023-11-05T23:27:24.130Z,1.02
2023-11-05T23:29:51.117Z,0.70
2023-11-05T23:32:18.593Z,1.05
2023-11-05T23:34:45.657Z,0.93
2023-11-05T23:37:12.610Z,1.00
2023-11-05T23:39:39.770Z,1.02
2023-11-05T23:42:07.285Z,0.75
2023-11-05T23:44:35.637Z,0.90
2023-11-05T23:47:02.787Z,0.80
2023-11-05T23:49:30.304Z,1.20
2023-11-05T23:51:57.363Z,0.73
2023-11-05T23:54:24.570Z,1.33
2023-11-05T23:56:51.644Z,1.33
2023-11-05T23:59:18.989Z,0.73
